Time;durP1;ratioP1;P1;durP2;ratioP2;P2;SDS_P1;SDS_P2;PMS_P1;PMS_P2;Temp;Humidity;BMP_temperature;BMP_pressure;BME280_temperature;BME280_humidity;BME280_pressure;Samples;Min_cycle;Max_cycle;Signal;HPM_P1;HPM_P2
2022/12/04 00:01:45;;;;;;;43.38;14.05;;;0.70;99.90;;;;;;5039245;28;20021;-78
2022/12/04 00:04:10;;;;;;;42.80;13.35;;;0.70;99.90;;;;;;5039666;28;20029;-78
2022/12/04 00:06:36;;;;;;;46.70;13.93;;;0.70;99.90;;;;;;5039036;28;20025;-78
2022/12/04 00:09:02;;;;;;;45.50;13.00;;;0.70;99.90;;;;;;5039017;28;20039;-78
2022/12/04 00:11:30;;;;;;;44.97;13.63;;;0.80;99.90;;;;;;5040083;28;20033;-78
2022/12/04 00:13:56;;;;;;;45.10;13.90;;;0.80;99.90;;;;;;5057511;28;20021;-78
2022/12/04 00:16:25;;;;;;;43.85;13.82;;;0.70;99.90;;;;;;5057407;28;20029;-78
2022/12/04 00:18:51;;;;;;;50.95;15.95;;;0.80;99.90;;;;;;5057463;28;20105;-78
2022/12/04 00:21:18;;;;;;;44.20;14.02;;;0.80;99.90;;;;;;5038694;28;20037;-78
2022/12/04 00:23:45;;;;;;;43.00;13.70;;;0.80;99.90;;;;;;5039164;28;20021;-78
2022/12/04 00:26:14;;;;;;;43.50;14.52;;;0.70;99.90;;;;;;5057468;28;20028;-78
2022/12/04 00:28:40;;;;;;;49.25;14.00;;;0.70;99.90;;;;;;5039439;28;20466;-78
2022/12/04 00:31:07;;;;;;;48.90;14.68;;;0.80;99.90;;;;;;5057090;28;20078;-78
2022/12/04 00:33:34;;;;;;;47.35;13.90;;;0.80;99.90;;;;;;5056978;28;20052;-78
2022/12/04 00:36:01;;;;;;;48.22;14.23;;;0.80;99.90;;;;;;5056821;28;20028;-79
2022/12/04 00:38:27;;;;;;;48.45;13.65;;;0.70;99.90;;;;;;5038605;28;20448;-79
2022/12/04 00:40:53;;;;;;;42.60;14.68;;;0.70;99.90;;;;;;5039094;28;20017;-78
2022/12/04 00:43:20;;;;;;;44.78;14.35;;;0.80;99.90;;;;;;5056833;28;20013;-78
2022/12/04 00:45:46;;;;;;;44.30;13.48;;;0.80;99.90;;;;;;5056809;28;20068;-77
2022/12/04 00:48:11;;;;;;;50.42;14.40;;;0.80;99.90;;;;;;5039057;28;20009;-78
2022/12/04 00:50:37;;;;;;;41.28;13.60;;;0.80;99.90;;;;;;5038600;28;20021;-78
2022/12/04 00:53:03;;;;;;;49.00;13.95;;;0.70;99.90;;;;;;5056485;28;20057;-78
2022/12/04 00:55:29;;;;;;;52.75;15.55;;;0.70;99.90;;;;;;5056665;28;20024;-78
2022/12/04 00:57:55;;;;;;;48.10;16.25;;;0.80;99.90;;;;;;5057244;28;20527;-78
2022/12/04 01:00:20;;;;;;;60.53;16.50;;;0.70;99.90;;;;;;5038813;28;20502;-78
2022/12/04 01:02:46;;;;;;;50.22;14.93;;;0.70;99.90;;;;;;5038616;28;20029;-78
2022/12/04 01:05:11;;;;;;;49.08;14.98;;;0.70;99.90;;;;;;5038785;28;20139;-78
2022/12/04 01:07:37;;;;;;;47.88;15.68;;;3.40;99.90;;;;;;5038467;28;20029;-78
2022/12/04 01:10:06;;;;;;;44.55;13.73;;;0.80;99.90;;;;;;5054942;28;20115;-78
2022/12/04 01:12:32;;;;;;;44.78;14.40;;;0.80;99.90;;;;;;5038270;28;20102;-79
2022/12/04 01:14:58;;;;;;;51.10;15.48;;;0.80;99.90;;;;;;5056757;28;20488;-78
2022/12/04 01:17:24;;;;;;;51.03;15.05;;;0.80;99.90;;;;;;5037955;28;20112;-78
2022/12/04 01:19:49;;;;;;;49.90;15.45;;;0.80;99.90;;;;;;5055772;28;20036;-78
2022/12/04 01:22:15;;;;;;;48.22;14.15;;;0.80;99.90;;;;;;5054250;28;20036;-78
2022/12/04 01:24:41;;;;;;;51.20;15.52;;;0.80;99.90;;;;;;5038213;28;20025;-78
2022/12/04 01:27:06;;;;;;;47.97;15.10;;;0.80;99.90;;;;;;5071549;28;20434;-78
2022/12/04 01:29:32;;;;;;;46.63;14.35;;;0.80;99.90;;;;;;5038191;28;20033;-79
2022/12/04 01:31:58;;;;;;;53.33;15.32;;;0.80;99.90;;;;;;5037104;28;20025;-79
2022/12/04 01:34:24;;;;;;;48.97;15.18;;;0.80;99.90;;;;;;5037254;28;20031;-78
2022/12/04 01:36:50;;;;;;;57.40;16.88;;;0.60;99.90;;;;;;5054330;28;20062;-79
2022/12/04 01:39:15;;;;;;;43.63;14.63;;;0.70;99.90;;;;;;5054904;28;20454;-78
2022/12/04 01:41:41;;;;;;;52.33;14.35;;;1.70;99.90;;;;;;5037494;28;20056;-78
2022/12/04 01:44:11;;;;;;;53.20;15.20;;;0.80;99.90;;;;;;5037281;28;20116;-78
2022/12/04 01:46:38;;;;;;;48.00;14.07;;;0.70;99.90;;;;;;5037375;28;20505;-78
2022/12/04 01:49:06;;;;;;;46.72;15.15;;;0.80;99.90;;;;;;5054923;28;20103;-78
2022/12/04 01:51:39;;;;;;;56.73;15.93;;;0.80;99.90;;;;;;5054954;28;20029;-78
2022/12/04 01:54:10;;;;;;;55.17;15.90;;;0.80;99.90;;;;;;5055069;28;20255;-78
2022/12/04 01:56:47;;;;;;;48.30;15.27;;;0.80;99.90;;;;;;5054873;28;20025;-78
2022/12/04 01:59:15;;;;;;;48.10;14.50;;;0.80;99.90;;;;;;5054814;28;20434;-78
2022/12/04 02:01:53;;;;;;;37.35;11.32;;;0.80;99.90;;;;;;5054656;28;20032;-78
2022/12/04 02:04:19;;;;;;;49.53;14.48;;;0.80;99.90;;;;;;5054514;28;20392;-78
2022/12/04 02:06:45;;;;;;;53.95;14.52;;;0.80;99.90;;;;;;5054353;28;20063;-78
2022/12/04 02:09:10;;;;;;;52.72;16.27;;;0.80;99.90;;;;;;5036328;28;20028;-78
2022/12/04 02:11:49;;;;;;;50.15;15.27;;;0.80;99.90;;;;;;5054807;28;20025;-78
2022/12/04 02:14:47;;;;;;;45.95;14.65;;;0.80;99.90;;;;;;5036658;28;20036;-78
2022/12/04 02:17:50;;;;;;;50.83;14.10;;;0.80;99.90;;;;;;5077045;28;20047;-80
2022/12/04 02:20:22;;;;;;;48.25;14.52;;;0.80;99.90;;;;;;5044361;28;20043;-79
2022/12/04 02:23:09;;;;;;;49.80;15.45;;;0.80;99.90;;;;;;5037353;28;20024;-80
2022/12/04 02:25:43;;;;;;;45.50;14.93;;;0.80;99.90;;;;;;5054713;28;20434;-78
2022/12/04 02:28:22;;;;;;;51.95;15.98;;;0.80;99.90;;;;;;5036665;28;20483;-78
2022/12/04 02:30:48;;;;;;;;;;;0.80;99.90;;;;;;5036942;28;20111;-78
2022/12/04 02:33:22;;;;;;;52.10;14.55;;;0.80;99.90;;;;;;5054673;28;19998;-78
2022/12/04 02:35:55;;;;;;;49.47;14.60;;;0.80;99.90;;;;;;5036715;28;20036;-78
2022/12/04 02:38:39;;;;;;;52.92;15.38;;;0.80;99.90;;;;;;5054389;28;20023;-78
2022/12/04 02:41:23;;;;;;;51.03;15.38;;;0.80;99.90;;;;;;5054364;28;20479;-78
2022/12/04 02:43:52;;;;;;;53.22;15.05;;;0.80;99.90;;;;;;5036491;28;20098;-78
2022/12/04 02:46:35;;;;;;;48.85;16.23;;;0.80;99.90;;;;;;5054432;28;20021;-78
2022/12/04 02:49:03;;;;;;;46.40;14.73;;;0.80;99.90;;;;;;5054085;28;20056;-78
2022/12/04 02:51:34;;;;;;;51.47;14.90;;;0.80;99.90;;;;;;5053790;28;20036;-78
2022/12/04 02:54:06;;;;;;;50.28;14.52;;;0.80;99.90;;;;;;5036322;28;20383;-78
2022/12/04 02:56:36;;;;;;;57.53;16.77;;;0.80;99.90;;;;;;5035776;28;20017;-78
2022/12/04 02:59:07;;;;;;;49.92;15.10;;;0.80;99.90;;;;;;5035859;28;20032;-79
2022/12/04 03:01:37;;;;;;;49.60;14.93;;;0.80;99.90;;;;;;5054235;28;20120;-79
2022/12/04 03:04:06;;;;;;;49.08;13.93;;;0.90;99.90;;;;;;5036610;28;20034;-78
2022/12/04 03:06:33;;;;;;;;;;;0.80;99.90;;;;;;5036976;28;20029;-78
2022/12/04 03:09:09;;;;;;;57.20;15.25;;;0.80;99.90;;;;;;5054198;28;20338;-78
2022/12/04 03:11:37;;;;;;;52.20;16.08;;;0.80;99.90;;;;;;5053976;28;20088;-78
2022/12/04 03:14:15;;;;;;;54.17;15.77;;;0.70;99.90;;;;;;5036299;28;20116;-78
2022/12/04 03:16:42;;;;;;;47.30;14.68;;;0.70;99.90;;;;;;5036472;28;20303;-78
2022/12/04 03:19:32;;;;;;;53.55;16.05;;;0.70;99.90;;;;;;5053541;28;20021;-78
2022/12/04 03:22:03;;;;;;;55.17;15.85;;;0.70;99.90;;;;;;5054309;28;20033;-79
2022/12/04 03:24:35;;;;;;;48.03;15.35;;;0.70;99.90;;;;;;5053857;28;20110;-78
2022/12/04 03:27:06;;;;;;;51.45;15.75;;;0.70;99.90;;;;;;5053553;28;20437;-78
2022/12/04 03:29:41;;;;;;;54.05;17.02;;;0.70;99.90;;;;;;5035887;28;20095;-79
2022/12/04 03:32:21;;;;;;;51.67;15.48;;;0.70;99.90;;;;;;5036171;28;20017;-78
2022/12/04 03:34:46;;;;;;;52.90;16.63;;;0.70;99.90;;;;;;5036334;28;20475;-78
2022/12/04 03:37:16;;;;;;;51.55;15.90;;;0.70;99.90;;;;;;5054596;28;20033;-78
2022/12/04 03:39:57;;;;;;;47.38;15.23;;;0.70;99.90;;;;;;5069819;28;20025;-79
2022/12/04 03:42:57;;;;;;;43.63;13.88;;;0.80;99.90;;;;;;5053989;28;20060;-79
2022/12/04 03:45:41;;;;;;;49.47;14.23;;;0.80;99.90;;;;;;5069083;28;20495;-78
2022/12/04 03:48:14;;;;;;;59.00;16.67;;;0.80;99.90;;;;;;5036039;28;20060;-78
2022/12/04 03:50:57;;;;;;;49.40;14.43;;;0.70;99.90;;;;;;5036134;28;20032;-78
2022/12/04 03:53:38;;;;;;;49.08;14.43;;;0.70;99.90;;;;;;5054050;28;20025;-77
2022/12/04 03:56:20;;;;;;;48.53;15.40;;;0.70;99.90;;;;;;5068622;28;20071;-78
2022/12/04 03:58:54;;;;;;;55.20;15.65;;;0.70;99.90;;;;;;5036366;28;20021;-78
2022/12/04 04:01:24;;;;;;;51.03;15.35;;;0.70;99.90;;;;;;5038730;28;20044;-78
2022/12/04 04:03:53;;;;;;;48.03;15.35;;;0.80;99.90;;;;;;5039167;28;20052;-78
2022/12/04 04:06:36;;;;;;;50.15;15.20;;;0.80;99.90;;;;;;5039025;28;20085;-78
2022/12/04 04:09:07;;;;;;;51.40;14.93;;;0.80;99.90;;;;;;5072238;28;20029;-78
2022/12/04 04:11:41;;;;;;;53.83;16.70;;;0.80;99.90;;;;;;5056802;28;20031;-78
2022/12/04 04:25:47;;;;;;;56.33;16.88;;;0.80;99.90;;;;;;5033130;28;20078;-80
2022/12/04 04:28:31;;;;;;;48.60;15.27;;;0.80;99.90;;;;;;5038674;28;20095;-79
2022/12/04 04:31:10;;;;;;;52.35;16.88;;;0.80;99.90;;;;;;5038348;28;20028;-79
2022/12/04 04:33:46;;;;;;;44.10;12.68;;;0.80;99.90;;;;;;5038221;28;20395;-79
2022/12/04 04:36:54;;;;;;;50.97;16.02;;;0.80;99.90;;;;;;5038294;28;20025;-79
2022/12/04 04:39:22;;;;;;;47.28;15.25;;;0.80;99.90;;;;;;5037919;28;20037;-79
2022/12/04 04:42:01;;;;;;;50.78;15.77;;;0.80;99.90;;;;;;5038236;28;20029;-77
2022/12/04 04:44:47;;;;;;;48.72;15.50;;;0.80;99.90;;;;;;5038098;28;20021;-80
2022/12/04 04:47:23;;;;;;;44.53;14.52;;;0.80;99.90;;;;;;5008746;28;20037;-80
2022/12/04 04:49:52;;;;;;;52.65;16.13;;;0.80;99.90;;;;;;5038934;28;20021;-80
2022/12/04 04:52:20;;;;;;;39.75;12.45;;;0.80;99.90;;;;;;5038734;28;20047;-80
2022/12/04 04:54:46;;;;;;;46.65;15.27;;;0.80;99.90;;;;;;5038950;28;20585;-80
2022/12/04 04:57:12;;;;;;;54.85;18.20;;;0.80;99.90;;;;;;5056890;28;20021;-80
2022/12/04 04:59:37;;;;;;;52.80;16.60;;;0.80;99.90;;;;;;5038453;28;20095;-79
2022/12/04 05:02:03;;;;;;;49.65;15.35;;;0.70;99.90;;;;;;5037908;28;20025;-79
2022/12/04 05:04:29;;;;;;;56.95;17.20;;;0.80;99.90;;;;;;5037944;28;20025;-79
2022/12/04 05:06:54;;;;;;;45.75;15.77;;;0.80;99.90;;;;;;5055982;28;20067;-80
2022/12/04 05:09:20;;;;;;;48.83;16.42;;;;;;;;;;5038267;28;20117;-80
2022/12/04 05:11:46;;;;;;;55.00;15.88;;;0.80;99.90;;;;;;5037358;28;20047;-78
2022/12/04 05:14:11;;;;;;;52.90;16.08;;;0.80;99.90;;;;;;5037714;28;20531;-79
2022/12/04 05:16:38;;;;;;;49.05;15.45;;;0.80;99.90;;;;;;5055377;28;20059;-79
2022/12/04 05:21:48;;;;;;;52.58;15.80;;;0.80;99.90;;;;;;5055802;28;20078;-79
2022/12/04 05:24:13;;;;;;;53.20;17.38;;;0.80;99.90;;;;;;5037851;28;20029;-80
2022/12/04 05:26:39;;;;;;;57.08;16.95;;;0.90;99.90;;;;;;5040516;28;20114;-80
2022/12/04 05:29:04;;;;;;;54.40;16.48;;;0.90;99.90;;;;;;5059571;28;20025;-80
2022/12/04 05:31:30;;;;;;;48.35;15.95;;;0.90;99.90;;;;;;5041310;28;20025;-80
2022/12/04 05:33:56;;;;;;;55.38;16.95;;;0.90;99.90;;;;;;5038483;28;20075;-80
2022/12/04 05:36:21;;;;;;;59.40;17.13;;;0.90;99.90;;;;;;5057974;28;20068;-80
2022/12/04 05:38:47;;;;;;;46.33;15.68;;;0.90;99.90;;;;;;5040002;28;20024;-80
2022/12/04 05:41:12;;;;;;;53.45;17.05;;;0.90;99.90;;;;;;5039521;28;20387;-80
2022/12/04 05:43:38;;;;;;;52.55;16.63;;;0.80;99.90;;;;;;5038812;28;20116;-80
2022/12/04 05:46:05;;;;;;;63.58;17.73;;;0.90;99.90;;;;;;5038718;28;20029;-80
2022/12/04 05:48:31;;;;;;;55.22;17.15;;;0.90;99.90;;;;;;5038223;28;20024;-80
2022/12/04 05:50:56;;;;;;;61.47;16.75;;;0.70;99.90;;;;;;5056644;28;20025;-80
2022/12/04 05:53:22;;;;;;;53.60;16.73;;;0.80;99.90;;;;;;5038353;28;20119;-80
2022/12/04 05:56:01;;;;;;;54.75;15.82;;;0.90;99.90;;;;;;5038222;28;20468;-80
2022/12/04 05:58:26;;;;;;;49.33;15.82;;;0.90;99.90;;;;;;5038332;28;20116;-80
2022/12/04 06:00:52;;;;;;;51.80;16.08;;;0.90;99.90;;;;;;5038823;28;20053;-80
2022/12/04 06:03:18;;;;;;;48.40;15.57;;;0.90;99.90;;;;;;5038702;28;20430;-80
2022/12/04 06:05:44;;;;;;;54.50;16.23;;;;;;;;;;5056102;28;20028;-80
2022/12/04 06:08:09;;;;;;;52.63;15.88;;;0.90;99.90;;;;;;5057301;28;20053;-81
2022/12/04 06:10:35;;;;;;;57.08;18.48;;;0.80;99.90;;;;;;5037981;28;20515;-80
2022/12/04 06:13:00;;;;;;;49.63;15.68;;;0.90;99.90;;;;;;5036642;28;20025;-80
2022/12/04 06:15:26;;;;;;;51.65;15.93;;;0.80;99.90;;;;;;5037484;28;20043;-79
2022/12/04 06:17:51;;;;;;;45.80;15.07;;;0.90;99.90;;;;;;5037790;28;20017;-77
2022/12/04 06:20:17;;;;;;;49.38;16.45;;;0.90;99.90;;;;;;5055102;28;20082;-77
2022/12/04 06:22:43;;;;;;;48.53;14.88;;;0.90;99.90;;;;;;5036882;28;20028;-77
2022/12/04 06:25:09;;;;;;;44.58;15.00;;;0.90;99.90;;;;;;5037082;28;20092;-77
2022/12/04 06:27:34;;;;;;;50.42;15.05;;;0.90;99.90;;;;;;5054781;28;20029;-77
2022/12/04 06:30:00;;;;;;;41.40;14.05;;;0.80;99.90;;;;;;5036924;28;20059;-77
2022/12/04 06:32:26;;;;;;;47.95;15.07;;;0.90;99.90;;;;;;5054841;28;20116;-77
2022/12/04 06:34:53;;;;;;;50.63;16.40;;;0.90;99.90;;;;;;5054612;28;20444;-76
2022/12/04 06:37:19;;;;;;;45.00;15.55;;;0.90;99.90;;;;;;5054733;28;20043;-76
2022/12/04 06:39:45;;;;;;;44.15;15.93;;;0.90;99.90;;;;;;5036734;28;20032;-76
2022/12/04 06:42:11;;;;;;;47.50;15.38;;;0.90;99.90;;;;;;5036203;28;20024;-76
2022/12/04 06:44:36;;;;;;;50.60;16.67;;;0.90;99.90;;;;;;5036833;28;20120;-76
2022/12/04 06:47:02;;;;;;;46.38;14.88;;;0.90;99.90;;;;;;5037310;28;20028;-76
2022/12/04 06:49:27;;;;;;;50.83;14.80;;;0.90;99.90;;;;;;5055213;28;20025;-76
2022/12/04 06:51:53;;;;;;;52.30;15.10;;;0.90;99.90;;;;;;5054717;28;20495;-76
2022/12/04 06:54:18;;;;;;;45.95;14.68;;;0.90;99.90;;;;;;5054253;28;20022;-76
2022/12/04 06:56:44;;;;;;;45.42;14.32;;;0.90;99.90;;;;;;5036513;28;20548;-76
2022/12/04 06:59:09;;;;;;;51.83;14.80;;;0.90;99.90;;;;;;5036470;28;20029;-77
2022/12/04 07:01:35;;;;;;;49.30;16.25;;;0.90;99.90;;;;;;5054843;28;20086;-76
2022/12/04 07:04:03;;;;;;;43.85;14.45;;;1.00;99.90;;;;;;5036504;28;20025;-77
2022/12/04 07:06:34;;;;;;;53.42;15.90;;;1.00;99.90;;;;;;5054275;28;20032;-77
2022/12/04 07:09:05;;;;;;;46.17;15.15;;;0.90;99.90;;;;;;5035608;28;20111;-77
2022/12/04 07:11:32;;;;;;;47.45;14.95;;;0.90;99.90;;;;;;5035535;28;20029;-76
2022/12/04 07:13:57;;;;;;;51.13;16.02;;;0.90;99.90;;;;;;5053425;28;20450;-76
2022/12/04 07:16:25;;;;;;;44.83;15.88;;;0.90;99.90;;;;;;5035416;28;20056;-76
2022/12/04 07:18:53;;;;;;;48.92;14.73;;;0.90;99.90;;;;;;5035430;28;20020;-76
2022/12/04 07:21:21;;;;;;;53.40;15.80;;;1.00;99.90;;;;;;5052896;28;20037;-76
2022/12/04 07:23:52;;;;;;;37.95;11.55;;;0.90;99.90;;;;;;5053227;28;20032;-76
2022/12/04 07:26:19;;;;;;;46.97;15.07;;;0.90;99.90;;;;;;5053244;28;20017;-76
2022/12/04 07:28:44;;;;;;;51.13;16.10;;;0.90;99.90;;;;;;5035645;28;20086;-76
2022/12/04 07:31:13;;;;;;;46.13;15.50;;;0.90;99.90;;;;;;5053353;28;20423;-76
2022/12/04 07:33:39;;;;;;;50.22;15.55;;;0.90;99.90;;;;;;5054383;28;20427;-76
2022/12/04 07:36:08;;;;;;;45.35;14.85;;;0.90;99.90;;;;;;5039250;28;20044;-76
2022/12/04 07:38:33;;;;;;;52.00;16.23;;;0.90;99.90;;;;;;5056420;28;20036;-76
2022/12/04 07:41:01;;;;;;;52.78;15.43;;;0.90;99.90;;;;;;5056658;28;20017;-76
2022/12/04 07:43:28;;;;;;;42.97;15.27;;;0.90;99.90;;;;;;5038969;28;20025;-76
2022/12/04 07:45:56;;;;;;;46.03;14.68;;;1.00;99.90;;;;;;5038957;28;20059;-76
2022/12/04 07:48:22;;;;;;;48.13;15.25;;;1.00;99.90;;;;;;5056801;28;20063;-76
2022/12/04 07:50:47;;;;;;;45.17;14.88;;;1.00;99.90;;;;;;5039243;28;20021;-76
2022/12/04 07:53:13;;;;;;;47.30;14.57;;;1.00;99.90;;;;;;5057042;28;20035;-75
2022/12/04 07:55:39;;;;;;;49.13;15.40;;;1.00;99.90;;;;;;5056461;28;20029;-76
2022/12/04 07:58:07;;;;;;;43.90;15.02;;;1.00;99.90;;;;;;5056651;28;20023;-78
2022/12/04 08:00:33;;;;;;;47.42;15.27;;;1.00;99.90;;;;;;5056543;28;20377;-76
2022/12/04 08:02:58;;;;;;;48.00;14.43;;;1.00;99.90;;;;;;5038798;28;20075;-76
2022/12/04 08:05:24;;;;;;;46.90;15.25;;;1.00;99.90;;;;;;5056644;28;20501;-76
2022/12/04 08:07:50;;;;;;;45.90;15.80;;;1.00;99.90;;;;;;5056630;28;20084;-76
2022/12/04 08:10:16;;;;;;;50.13;16.65;;;1.00;99.90;;;;;;5057771;28;20029;-78
2022/12/04 08:12:41;;;;;;;50.05;15.90;;;1.10;99.90;;;;;;5056486;28;20025;-77
2022/12/04 08:15:07;;;;;;;48.33;15.20;;;1.00;99.90;;;;;;5056302;28;20507;-78
2022/12/04 08:17:33;;;;;;;48.90;15.80;;;1.10;99.90;;;;;;5056499;28;20075;-78
2022/12/04 08:20:02;;;;;;;53.90;15.32;;;1.10;99.90;;;;;;5039095;28;20029;-78
2022/12/04 08:22:27;;;;;;;55.63;15.93;;;1.10;99.90;;;;;;5056418;28;20399;-77
2022/12/04 08:24:53;;;;;;;49.45;16.15;;;1.10;99.90;;;;;;5038286;28;20025;-78
2022/12/04 08:27:19;;;;;;;51.28;16.02;;;;;;;;;;5056219;28;20096;-78
2022/12/04 08:29:45;;;;;;;55.38;17.02;;;1.10;99.90;;;;;;5039517;28;20032;-78
2022/12/04 08:32:11;;;;;;;53.53;15.88;;;1.10;99.90;;;;;;5037820;28;20399;-77
2022/12/04 08:34:36;;;;;;;51.72;16.23;;;1.10;99.90;;;;;;5056113;28;20021;-77
2022/12/04 08:37:02;;;;;;;41.10;14.77;;;1.10;99.90;;;;;;5056156;28;20383;-77
2022/12/04 08:39:27;;;;;;;50.58;15.18;;;1.10;99.90;;;;;;5038652;28;20021;-78
2022/12/04 08:41:53;;;;;;;50.65;17.08;;;1.10;99.90;;;;;;5038617;28;20094;-76
2022/12/04 08:44:18;;;;;;;54.03;15.38;;;1.10;99.90;;;;;;5056643;28;20027;-77
2022/12/04 08:46:44;;;;;;;49.72;15.57;;;1.10;99.90;;;;;;5038294;28;20052;-77
2022/12/04 08:49:09;;;;;;;53.10;16.77;;;1.20;99.90;;;;;;5056328;28;20530;-77
2022/12/04 08:51:35;;;;;;;53.15;16.73;;;1.10;99.90;;;;;;5038144;28;20017;-77
2022/12/04 08:54:05;;;;;;;51.95;16.55;;;1.10;99.90;;;;;;5056095;28;20372;-77
2022/12/04 08:56:32;;;;;;;50.33;15.88;;;1.10;99.90;;;;;;5038008;28;20017;-77
2022/12/04 08:58:59;;;;;;;53.08;15.68;;;1.20;99.90;;;;;;5056448;28;20032;-76
2022/12/04 09:01:25;;;;;;;48.40;14.45;;;1.20;99.90;;;;;;5038655;28;20028;-76
2022/12/04 09:03:51;;;;;;;52.72;16.05;;;1.20;99.90;;;;;;5056978;28;20395;-76
2022/12/04 09:06:17;;;;;;;52.55;16.13;;;1.20;99.90;;;;;;5056734;28;20021;-77
2022/12/04 09:08:43;;;;;;;45.40;14.70;;;1.20;99.90;;;;;;5056964;28;20021;-77
2022/12/04 09:11:15;;;;;;;48.38;14.38;;;1.20;99.90;;;;;;5055987;28;20033;-77
2022/12/04 09:13:42;;;;;;;48.53;15.38;;;1.30;99.90;;;;;;5056436;28;20071;-77
2022/12/04 09:16:11;;;;;;;52.92;16.15;;;1.20;99.90;;;;;;5038119;28;20040;-77
2022/12/04 09:18:37;;;;;;;47.58;15.35;;;1.20;99.90;;;;;;5055980;28;20017;-77
2022/12/04 09:21:07;;;;;;;45.45;15.30;;;1.20;99.90;;;;;;5055982;28;20032;-77
2022/12/04 09:23:34;;;;;;;52.28;16.35;;;1.10;99.90;;;;;;5038899;28;20074;-77
2022/12/04 09:26:00;;;;;;;43.65;15.05;;;;;;;;;;5037880;28;20032;-76
2022/12/04 09:28:26;;;;;;;45.67;14.50;;;1.30;99.90;;;;;;5056847;28;20460;-77
2022/12/04 09:30:56;;;;;;;45.03;14.40;;;1.40;99.90;;;;;;5056275;28;20060;-75
2022/12/04 09:33:22;;;;;;;43.97;14.02;;;1.40;99.90;;;;;;5055684;28;20029;-76
2022/12/04 09:35:47;;;;;;;45.95;14.63;;;1.40;99.90;;;;;;5038217;28;20023;-76
2022/12/04 09:38:13;;;;;;;45.15;13.95;;;1.40;99.90;;;;;;5038386;28;20025;-77
2022/12/04 09:41:06;;;;;;;45.00;14.90;;;1.40;99.90;;;;;;5056397;28;20021;-76
2022/12/04 09:43:47;;;;;;;43.20;14.07;;;1.40;99.90;;;;;;5037798;28;20472;-76
2022/12/04 09:46:30;;;;;;;50.38;14.13;;;1.40;99.90;;;;;;5038266;28;20071;-77
2022/12/04 09:49:00;;;;;;;42.00;13.95;;;1.40;99.90;;;;;;5056424;28;20029;-77
2022/12/04 09:51:27;;;;;;;49.20;15.50;;;1.40;99.90;;;;;;5056750;28;20028;-75
2022/12/04 09:54:04;;;;;;;52.78;15.07;;;1.40;99.90;;;;;;5039089;28;20044;-75
2022/12/04 09:56:31;;;;;;;44.80;14.93;;;1.40;99.90;;;;;;5038179;28;20064;-76
2022/12/04 09:59:07;;;;;;;45.72;14.27;;;1.50;99.90;;;;;;5056708;28;20025;-76
2022/12/04 10:01:55;;;;;;;53.63;14.73;;;1.50;99.90;;;;;;5038314;28;20029;-77
2022/12/04 10:04:21;;;;;;;43.17;13.53;;;1.40;99.90;;;;;;5056118;28;20021;-77
2022/12/04 10:07:02;;;;;;;43.80;12.38;;;1.40;99.90;;;;;;5038181;28;20017;-75
2022/12/04 10:09:54;;;;;;;43.97;13.63;;;1.40;99.90;;;;;;5038464;28;20033;-76
2022/12/04 10:12:45;;;;;;;44.53;14.60;;;1.40;99.90;;;;;;5055841;28;20423;-76
2022/12/04 10:15:15;;;;;;;39.85;13.10;;;1.40;99.90;;;;;;5055646;28;20023;-75
2022/12/04 10:17:53;;;;;;;40.42;14.27;;;1.40;99.90;;;;;;5055856;28;20055;-76
2022/12/04 10:20:44;;;;;;;44.80;13.60;;;1.40;99.90;;;;;;5055695;28;20135;-76
2022/12/04 10:23:34;;;;;;;38.85;12.50;;;1.40;99.90;;;;;;5055919;28;20422;-75
2022/12/04 10:26:03;;;;;;;39.47;12.98;;;1.40;99.90;;;;;;5037714;28;20561;-76
2022/12/04 10:28:40;;;;;;;45.90;13.95;;;1.40;99.90;;;;;;5056076;28;20100;-75
2022/12/04 10:31:13;;;;;;;41.40;11.23;;;1.10;99.90;;;;;;5056034;28;20392;-74
2022/12/04 10:33:52;;;;;;;47.65;14.10;;;1.40;99.90;;;;;;5039014;28;20559;-74
2022/12/04 10:36:22;;;;;;;40.28;13.50;;;1.40;99.90;;;;;;5055998;28;20431;-77
2022/12/04 10:39:02;;;;;;;39.88;12.98;;;1.40;99.90;;;;;;5039306;28;20027;-74
2022/12/04 10:41:30;;;;;;;38.08;12.48;;;1.40;99.90;;;;;;5036927;28;20031;-75
2022/12/04 10:43:56;;;;;;;37.27;11.20;;;1.40;99.90;;;;;;5036459;28;20028;-75
2022/12/04 10:46:26;;;;;;;42.83;12.43;;;1.40;99.90;;;;;;5054389;28;20468;-75
2022/12/04 10:49:01;;;;;;;42.42;13.73;;;1.40;99.90;;;;;;5036618;28;20063;-72
2022/12/04 10:51:37;;;;;;;42.15;12.65;;;1.40;99.90;;;;;;5054422;28;20598;-74
2022/12/04 10:54:33;;;;;;;40.53;11.70;;;1.40;99.90;;;;;;5031294;28;20022;-74
2022/12/04 10:57:07;;;;;;;31.10;11.25;;;1.40;99.90;;;;;;5015940;28;20041;-74
2022/12/04 10:59:33;;;;;;;37.58;11.90;;;1.40;99.90;;;;;;5034093;28;20484;-73
2022/12/04 11:02:14;;;;;;;41.03;12.27;;;1.40;99.90;;;;;;5037940;28;20040;-73
2022/12/04 11:04:40;;;;;;;30.90;9.95;;;1.40;99.90;;;;;;5034599;28;20033;-73
2022/12/04 11:07:17;;;;;;;37.55;11.05;;;1.50;99.90;;;;;;5016925;28;20033;-73
2022/12/04 11:09:42;;;;;;;39.10;10.68;;;1.50;99.90;;;;;;5046410;28;20028;-74
2022/12/04 11:12:17;;;;;;;30.08;9.63;;;1.40;99.90;;;;;;5022691;28;20033;-74
2022/12/04 11:14:43;;;;;;;29.80;9.40;;;1.50;99.90;;;;;;5043362;28;20017;-77
2022/12/04 11:17:17;;;;;;;32.10;10.52;;;1.40;99.90;;;;;;5058822;28;20024;-76
2022/12/04 11:19:43;;;;;;;32.03;10.32;;;1.40;99.90;;;;;;5059949;28;20484;-76
2022/12/04 11:22:14;;;;;;;41.40;11.82;;;1.40;99.90;;;;;;5058771;28;20025;-76
2022/12/04 11:24:41;;;;;;;30.30;9.57;;;1.50;99.90;;;;;;5058574;28;20475;-74
2022/12/04 11:27:22;;;;;;;38.83;10.27;;;1.50;99.90;;;;;;5057114;28;20072;-75
2022/12/04 11:29:49;;;;;;;35.72;10.50;;;1.50;99.90;;;;;;5040882;28;20488;-74
2022/12/04 11:32:22;;;;;;;29.98;9.45;;;1.50;99.90;;;;;;5057773;28;20104;-74
2022/12/04 11:34:50;;;;;;;36.45;11.02;;;1.50;99.90;;;;;;5040003;28;20021;-74
2022/12/04 11:37:24;;;;;;;28.20;8.60;;;1.50;99.90;;;;;;5058363;28;20047;-74
2022/12/04 11:39:52;;;;;;;32.35;8.68;;;1.50;99.90;;;;;;5057571;28;20059;-74
2022/12/04 11:42:29;;;;;;;31.40;8.98;;;1.50;99.90;;;;;;5039730;28;20075;-74
2022/12/04 11:45:00;;;;;;;30.20;8.15;;;1.50;99.90;;;;;;5056537;28;20032;-74
2022/12/04 11:47:29;;;;;;;29.70;9.73;;;1.50;99.90;;;;;;5040238;28;20032;-75
2022/12/04 11:50:23;;;;;;;30.77;9.15;;;1.50;99.90;;;;;;5040591;28;20057;-74
2022/12/04 11:53:01;;;;;;;28.45;9.23;;;1.50;99.90;;;;;;5057758;28;20052;-76
2022/12/04 11:55:40;;;;;;;27.20;9.00;;;1.50;99.90;;;;;;5061967;28;20082;-79
2022/12/04 11:58:22;;;;;;;27.50;8.77;;;1.50;99.90;;;;;;5058360;28;20032;-77
2022/12/04 12:01:11;;;;;;;24.52;7.65;;;1.50;99.90;;;;;;5029974;28;20415;-77
2022/12/04 12:03:40;;;;;;;;;;;1.60;99.90;;;;;;5039724;28;20049;-77
2022/12/04 12:06:33;;;;;;;24.80;7.07;;;1.60;99.90;;;;;;5039966;28;20377;-77
2022/12/04 12:09:07;;;;;;;23.88;7.43;;;1.60;99.90;;;;;;5027559;28;20116;-77
2022/12/04 12:12:05;;;;;;;21.52;6.80;;;1.60;99.90;;;;;;5020793;28;20014;-77
2022/12/04 12:14:56;;;;;;;23.00;7.75;;;1.60;99.90;;;;;;5008439;28;20473;-77
2022/12/04 12:17:27;;;;;;;22.17;7.72;;;1.60;99.90;;;;;;5022127;28;20490;-76
2022/12/04 12:20:19;;;;;;;23.98;7.50;;;1.60;99.90;;;;;;5037231;28;20503;-76
2022/12/04 12:22:50;;;;;;;25.98;7.95;;;1.60;99.90;;;;;;5037348;28;20392;-76
2022/12/04 12:25:51;;;;;;;22.83;7.15;;;1.60;99.90;;;;;;5037266;28;20603;-76
2022/12/04 12:28:34;;;;;;;20.98;6.60;;;1.60;99.90;;;;;;5027082;28;20037;-76
2022/12/04 12:31:54;;;;;;;20.48;7.47;;;1.60;99.90;;;;;;5048826;28;20029;-76
2022/12/04 12:34:28;;;;;;;16.67;6.18;;;1.60;99.90;;;;;;4979114;28;20030;-76
2022/12/04 12:36:55;;;;;;;20.25;7.38;;;1.60;99.90;;;;;;5036179;28;20436;-76
2022/12/04 12:39:29;;;;;;;21.50;6.60;;;1.60;99.90;;;;;;5037331;28;20030;-77
2022/12/04 12:41:58;;;;;;;19.90;6.47;;;1.60;99.90;;;;;;5019763;28;20025;-75
2022/12/04 12:44:39;;;;;;;20.10;6.53;;;1.60;99.90;;;;;;5036644;28;20029;-76
2022/12/04 12:47:21;;;;;;;16.42;6.03;;;1.60;99.90;;;;;;5030756;28;20028;-75
2022/12/04 12:49:55;;;;;;;23.50;7.30;;;1.70;99.90;;;;;;5057258;28;20017;-76
2022/12/04 12:52:33;;;;;;;19.52;6.00;;;1.60;99.90;;;;;;5055411;28;20400;-75
2022/12/04 12:55:13;;;;;;;17.98;6.35;;;1.70;99.90;;;;;;5038665;28;20017;-75
2022/12/04 12:57:43;;;;;;;22.27;7.60;;;1.70;99.90;;;;;;5021703;28;20030;-75
2022/12/04 13:00:21;;;;;;;17.15;6.63;;;1.70;99.90;;;;;;5019493;28;20017;-75
2022/12/04 13:03:00;;;;;;;20.80;6.80;;;1.70;99.90;;;;;;5037375;28;20030;-75
2022/12/04 13:05:36;;;;;;;23.33;7.10;;;1.70;99.90;;;;;;5036734;28;20029;-75
2022/12/04 13:08:23;;;;;;;18.80;6.28;;;1.70;99.90;;;;;;5056501;28;20036;-75
2022/12/04 13:11:03;;;;;;;18.50;6.15;;;1.70;99.90;;;;;;5056325;28;20025;-75
2022/12/04 13:13:33;;;;;;;19.65;6.47;;;1.70;99.90;;;;;;5055872;28;20111;-75
2022/12/04 13:16:11;;;;;;;22.45;6.68;;;1.70;99.90;;;;;;5054166;28;20029;-75